createdAt,value
2022-08-03T00:00:54.611Z,54.02
2022-08-03T00:03:57.612Z,54.26
2022-08-03T00:07:00.426Z,54.32
2022-08-03T00:10:03.527Z,53.90
2022-08-03T00:13:08.312Z,53.95
2022-08-03T00:16:11.490Z,53.46
2022-08-03T00:19:14.471Z,53.32
2022-08-03T00:22:17.385Z,53.23
2022-08-03T00:25:20.802Z,52.54
2022-08-03T00:28:23.676Z,52.80
2022-08-03T00:31:51.602Z,52.45
2022-08-03T00:34:57.826Z,52.40
2022-08-03T00:38:03.395Z,52.09
2022-08-03T00:41:06.282Z,52.41
2022-08-03T00:44:09.114Z,52.38
2022-08-03T00:47:12.298Z,52.32
2022-08-03T00:50:16.150Z,52.48
2022-08-03T00:53:19.371Z,52.61
2022-08-03T00:56:23.835Z,52.61
2022-08-03T00:59:27.567Z,52.39
2022-08-03T01:02:30.349Z,52.57
2022-08-03T01:05:58.262Z,52.58
2022-08-03T01:09:16.941Z,52.94
2022-08-03T01:12:29.491Z,53.20
2022-08-03T01:15:37.161Z,53.21
2022-08-03T01:19:08.865Z,53.21
2022-08-03T01:22:37.894Z,53.23
2022-08-03T01:25:40.662Z,53.11
2022-08-03T01:29:05.443Z,52.89
2022-08-03T01:32:58.802Z,52.86
2022-08-03T01:35:58.808Z,53.02
2022-08-03T01:39:09.549Z,52.98
2022-08-03T01:42:15.570Z,52.92
2022-08-03T01:45:21.723Z,52.65
2022-08-03T01:48:26.248Z,52.55
2022-08-03T01:51:58.694Z,52.63
2022-08-03T01:54:55.777Z,52.87
2022-08-03T01:58:04.749Z,52.89
2022-08-03T02:01:12.221Z,53.06
2022-08-03T02:04:18.578Z,53.18
2022-08-03T02:07:21.909Z,53.48
2022-08-03T02:10:35.259Z,53.57
2022-08-03T02:13:40.089Z,53.72
2022-08-03T02:16:44.966Z,53.91
2022-08-03T02:19:50.996Z,54.23
2022-08-03T02:22:54.096Z,54.33
2022-08-03T02:26:01.991Z,54.39
2022-08-03T02:29:12.336Z,54.27
2022-08-03T02:32:20.471Z,53.99
2022-08-03T02:35:24.563Z,54.28
2022-08-03T02:38:36.080Z,54.80
2022-08-03T02:41:46.569Z,54.82
2022-08-03T02:44:53.591Z,54.90
2022-08-03T02:48:01.480Z,55.09
2022-08-03T02:51:05.783Z,55.17
2022-08-03T02:54:12.098Z,55.28
2022-08-03T02:57:16.730Z,55.44
2022-08-03T03:00:28.035Z,55.77
2022-08-03T03:03:39.993Z,55.86
2022-08-03T03:06:49.268Z,56.09
2022-08-03T03:09:53.118Z,56.12
2022-08-03T03:12:57.645Z,56.19
2022-08-03T03:16:03.231Z,56.09
2022-08-03T03:19:08.858Z,56.27
2022-08-03T03:22:13.601Z,56.48
2022-08-03T03:25:17.764Z,56.62
2022-08-03T03:28:21.144Z,56.60
2022-08-03T03:31:24.320Z,56.69
2022-08-03T03:34:30.799Z,56.74
2022-08-03T03:37:34.055Z,56.61
2022-08-03T03:40:38.301Z,56.67
2022-08-03T03:43:41.631Z,56.84
2022-08-03T03:46:44.811Z,57.22
2022-08-03T03:49:47.690Z,57.24
2022-08-03T03:52:51.370Z,57.33
2022-08-03T03:55:59.761Z,57.41
2022-08-03T03:59:05.700Z,57.51
2022-08-03T04:02:10.577Z,57.28
2022-08-03T04:05:33.750Z,57.32
2022-08-03T04:08:55.359Z,57.42
2022-08-03T04:12:01.878Z,57.46
2022-08-03T04:15:06.490Z,57.49
2022-08-03T04:18:13.388Z,57.51
2022-08-03T04:21:19.990Z,57.52
2022-08-03T04:24:26.534Z,57.58
2022-08-03T04:27:36.616Z,57.67
2022-08-03T04:30:49.197Z,57.58
2022-08-03T04:33:53.989Z,57.51
2022-08-03T04:37:00.552Z,57.40
2022-08-03T04:40:07.331Z,57.41
2022-08-03T04:43:13.924Z,57.26
2022-08-03T04:46:20.650Z,57.14
2022-08-03T04:49:24.345Z,57.07
2022-08-03T04:52:27.256Z,56.93
2022-08-03T04:55:33.363Z,56.91
2022-08-03T04:58:36.690Z,56.92
2022-08-03T05:01:41.613Z,56.94
2022-08-03T05:04:46.695Z,56.92
2022-08-03T05:07:50.236Z,56.83
2022-08-03T05:10:53.598Z,56.90
2022-08-03T05:13:57.429Z,56.80
2022-08-03T05:17:00.601Z,56.74
2022-08-03T05:20:08.198Z,56.56
2022-08-03T05:23:11.123Z,56.43
2022-08-03T05:26:15.560Z,56.33
2022-08-03T05:29:18.438Z,56.30
2022-08-03T05:32:21.555Z,56.09
2022-08-03T05:36:02.171Z,55.92
2022-08-03T05:38:49.462Z,56.11
2022-08-03T05:41:52.257Z,55.99
2022-08-03T05:45:23.184Z,55.82
2022-08-03T05:48:29.182Z,55.66
2022-08-03T05:51:32.019Z,55.76
2022-08-03T05:54:55.819Z,55.72
2022-08-03T05:57:58.967Z,55.90
2022-08-03T06:01:01.824Z,55.93
2022-08-03T06:04:04.903Z,55.79
2022-08-03T06:07:07.725Z,55.67
2022-08-03T06:10:36.215Z,55.62
2022-08-03T06:13:34.584Z,55.62
2022-08-03T06:16:37.454Z,55.64
2022-08-03T06:19:48.213Z,55.71
2022-08-03T06:23:00.473Z,55.68
2022-08-03T06:26:04.844Z,55.56
2022-08-03T06:29:09.892Z,55.62
2022-08-03T06:32:12.876Z,55.54
2022-08-03T06:35:16.580Z,55.62
2022-08-03T06:38:19.457Z,55.60
2022-08-03T06:41:22.187Z,55.55
2022-08-03T06:44:26.001Z,55.39
2022-08-03T06:47:28.783Z,55.52
2022-08-03T06:50:34.698Z,55.26
2022-08-03T06:53:37.630Z,55.30
2022-08-03T06:56:40.562Z,55.33
2022-08-03T07:00:10.085Z,54.88
2022-08-03T07:03:06.258Z,54.96
2022-08-03T07:06:09.175Z,54.84
2022-08-03T07:09:12.005Z,54.34
2022-08-03T07:12:14.963Z,53.77
2022-08-03T07:15:20.439Z,52.88
2022-08-03T07:18:41.117Z,52.44
2022-08-03T07:21:43.933Z,52.14
2022-08-03T07:24:47.943Z,51.97
2022-08-03T07:28:21.018Z,51.80
2022-08-03T07:31:24.005Z,51.63
2022-08-03T07:34:26.893Z,51.41
2022-08-03T07:37:31.067Z,51.30
2022-08-03T07:40:34.007Z,51.11
2022-08-03T07:43:37.025Z,51.02
2022-08-03T07:46:39.847Z,51.01
2022-08-03T07:49:42.998Z,50.99
2022-08-03T07:52:48.804Z,51.22
2022-08-03T07:55:51.984Z,51.14
2022-08-03T07:58:55.723Z,51.29
2022-08-03T08:01:58.659Z,51.31
2022-08-03T08:05:05.521Z,50.98
2022-08-03T08:08:09.937Z,50.92
2022-08-03T08:11:12.951Z,50.66
2022-08-03T08:14:15.903Z,50.32
2022-08-03T08:17:20.477Z,50.29
2022-08-03T08:20:28.057Z,50.08
2022-08-03T08:23:43.808Z,49.29
2022-08-03T08:26:49.445Z,49.49
2022-08-03T08:29:55.228Z,49.12
2022-08-03T08:33:00.598Z,48.21
2022-08-03T08:36:05.441Z,48.39
2022-08-03T08:39:08.794Z,47.99
2022-08-03T08:42:11.831Z,47.58
2022-08-03T08:45:15.870Z,46.90
2022-08-03T08:48:24.908Z,46.67
2022-08-03T08:51:50.472Z,46.53
2022-08-03T08:55:04.386Z,46.00
2022-08-03T08:58:11.031Z,44.62
2022-08-03T09:01:14.285Z,44.06
2022-08-03T09:04:18.065Z,43.84
2022-08-03T09:07:21.647Z,43.77
2022-08-03T09:10:24.771Z,44.23
2022-08-03T09:13:29.398Z,44.44
2022-08-03T09:16:32.461Z,44.54
2022-08-03T09:19:36.152Z,44.43
2022-08-03T09:23:59.156Z,44.29
2022-08-03T09:26:38.682Z,43.99
2022-08-03T09:29:43.475Z,44.26
2022-08-03T09:32:47.490Z,44.18
2022-08-03T09:35:57.896Z,43.71
2022-08-03T09:39:04.695Z,43.07
2022-08-03T09:42:09.311Z,43.40
2022-08-03T09:45:27.406Z,43.47
2022-08-03T09:48:31.927Z,43.51
2022-08-03T09:52:31.714Z,43.26
2022-08-03T09:54:57.931Z,43.31
2022-08-03T09:58:09.699Z,43.36
2022-08-03T10:01:24.053Z,43.45
2022-08-03T10:04:29.159Z,43.03
2022-08-03T10:07:46.043Z,43.13
2022-08-03T10:10:51.473Z,42.29
2022-08-03T10:13:58.031Z,41.99
2022-08-03T10:17:04.990Z,42.40
2022-08-03T10:20:09.835Z,41.45
2022-08-03T10:23:15.437Z,41.03
2022-08-03T10:26:22.682Z,41.37
2022-08-03T10:29:29.176Z,40.91
2022-08-03T10:32:40.321Z,41.06
2022-08-03T10:35:45.371Z,41.43
2022-08-03T10:38:53.417Z,41.60
2022-08-03T10:42:00.033Z,40.95
2022-08-03T10:45:09.938Z,41.64
2022-08-03T10:48:14.010Z,41.34
2022-08-03T10:51:17.497Z,41.88
2022-08-03T10:55:07.636Z,40.82
2022-08-03T10:58:12.864Z,40.70
2022-08-03T11:01:59.799Z,41.29
2022-08-03T11:05:28.527Z,39.52
2022-08-03T11:08:37.611Z,39.60
2022-08-03T11:11:43.577Z,39.74
2022-08-03T11:14:48.846Z,39.24
2022-08-03T11:18:11.539Z,39.88
2022-08-03T11:21:15.525Z,40.23
2022-08-03T11:24:39.446Z,39.97
2022-08-03T11:27:42.624Z,39.28
2022-08-03T11:30:45.593Z,39.07
2022-08-03T11:34:03.920Z,38.62
2022-08-03T11:37:28.566Z,37.82
2022-08-03T11:40:50.591Z,39.15
2022-08-03T11:43:53.542Z,38.23
2022-08-03T11:46:57.046Z,38.63
2022-08-03T11:50:02.412Z,37.93
2022-08-03T11:53:07.259Z,38.39
2022-08-03T11:56:12.897Z,37.74
2022-08-03T11:59:22.134Z,37.76
2022-08-03T12:02:25.723Z,36.35
2022-08-03T12:05:38.171Z,37.08
2022-08-03T12:08:43.642Z,37.09
2022-08-03T12:12:00.373Z,37.46
2022-08-03T12:15:05.964Z,35.71
2022-08-03T12:18:18.040Z,35.08
2022-08-03T12:21:24.749Z,36.11
2022-08-03T12:24:41.484Z,36.47
2022-08-03T12:27:44.456Z,36.81
2022-08-03T12:30:50.508Z,36.64
2022-08-03T12:34:15.062Z,36.62
2022-08-03T12:37:23.519Z,37.00
2022-08-03T12:40:28.309Z,37.28
2022-08-03T12:43:37.665Z,37.26
2022-08-03T12:46:47.670Z,36.91
2022-08-03T12:49:54.175Z,36.10
2022-08-03T12:52:58.479Z,35.86
2022-08-03T12:56:05.607Z,34.62
2022-08-03T12:59:32.482Z,35.09
2022-08-03T13:02:38.701Z,35.47
2022-08-03T13:05:45.890Z,35.04
2022-08-03T13:08:49.770Z,32.83
2022-08-03T13:12:10.195Z,33.33
2022-08-03T13:15:13.637Z,32.85
2022-08-03T13:18:17.517Z,33.06
2022-08-03T13:21:21.771Z,34.16
2022-08-03T13:24:24.999Z,34.49
2022-08-03T13:28:03.618Z,34.52
2022-08-03T13:30:54.807Z,34.29
2022-08-03T13:33:57.757Z,33.82
2022-08-03T13:37:09.827Z,32.62
2022-08-03T13:40:14.743Z,33.31
2022-08-03T13:43:18.136Z,33.78
2022-08-03T13:46:21.108Z,31.66
2022-08-03T13:49:29.155Z,31.90
2022-08-03T13:52:34.155Z,30.83
2022-08-03T13:55:50.394Z,31.16
2022-08-03T13:58:54.181Z,31.11
2022-08-03T14:01:57.809Z,31.76
2022-08-03T14:05:00.745Z,31.08
2022-08-03T14:08:05.958Z,31.35
2022-08-03T14:11:09.041Z,31.73
2022-08-03T14:14:12.420Z,31.24
2022-08-03T14:17:16.310Z,29.78
2022-08-03T14:20:36.725Z,28.68
2022-08-03T14:23:43.034Z,29.58
2022-08-03T14:26:47.745Z,30.03
2022-08-03T14:29:50.821Z,29.98
2022-08-03T14:32:55.946Z,30.39
2022-08-03T14:36:02.398Z,29.53
2022-08-03T14:39:06.064Z,29.90
2022-08-03T14:42:08.954Z,29.00
2022-08-03T14:45:20.013Z,27.72
2022-08-03T14:50:26.529Z,28.78
2022-08-03T14:51:58.720Z,28.52
2022-08-03T14:55:02.293Z,28.70
2022-08-03T14:58:18.595Z,29.18
2022-08-03T15:02:03.510Z,29.44
2022-08-03T15:05:18.021Z,29.14
2022-08-03T15:08:22.620Z,28.75
2022-08-03T15:11:25.438Z,29.17
2022-08-03T15:14:33.407Z,28.30
2022-08-03T15:18:00.430Z,28.72
2022-08-03T15:21:32.487Z,29.12
2022-08-03T15:24:36.617Z,29.48
2022-08-03T15:28:04.113Z,29.40
2022-08-03T15:31:35.619Z,29.60
2022-08-03T15:34:38.584Z,29.64
2022-08-03T15:37:42.227Z,30.06
2022-08-03T15:40:45.857Z,29.68
2022-08-03T15:43:48.730Z,28.85
2022-08-03T15:46:53.399Z,28.77
2022-08-03T15:49:56.374Z,28.47
2022-08-03T15:52:59.593Z,27.96
2022-08-03T15:56:09.419Z,27.72
2022-08-03T15:59:14.137Z,27.39
2022-08-03T16:02:17.412Z,27.16
2022-08-03T16:05:20.586Z,27.44
2022-08-03T16:08:23.562Z,27.83
2022-08-03T16:11:26.538Z,27.63
2022-08-03T16:14:34.818Z,27.63
2022-08-03T16:17:43.739Z,26.14
2022-08-03T16:20:47.221Z,26.20
2022-08-03T16:23:50.398Z,26.78
2022-08-03T16:26:54.497Z,25.27
2022-08-03T16:29:57.568Z,25.49
2022-08-03T16:33:01.053Z,26.13
2022-08-03T16:36:04.239Z,26.83
2022-08-03T16:39:07.261Z,26.87
2022-08-03T16:42:10.486Z,26.73
2022-08-03T16:45:14.078Z,26.90
2022-08-03T16:48:17.914Z,26.66
2022-08-03T16:51:23.149Z,26.87
2022-08-03T16:54:28.050Z,27.28
2022-08-03T16:57:58.883Z,27.43
2022-08-03T17:00:57.283Z,27.57
2022-08-03T17:04:04.538Z,27.62
2022-08-03T17:07:08.835Z,28.00
2022-08-03T17:10:13.175Z,28.08
2022-08-03T17:13:21.868Z,28.25
2022-08-03T17:16:26.063Z,28.23
2022-08-03T17:19:31.152Z,28.44
2022-08-03T17:22:39.583Z,28.52
2022-08-03T17:26:02.263Z,28.74
2022-08-03T17:29:13.060Z,28.70
2022-08-03T17:32:21.287Z,28.75
2022-08-03T17:35:35.550Z,28.71
2022-08-03T17:38:41.542Z,28.89
2022-08-03T17:41:48.969Z,28.99
2022-08-03T17:44:54.787Z,29.21
2022-08-03T17:47:59.334Z,29.42
2022-08-03T17:51:31.373Z,29.49
2022-08-03T17:55:56.102Z,29.43
2022-08-03T17:59:08.656Z,29.36
2022-08-03T18:02:55.584Z,29.48
2022-08-03T18:06:11.136Z,29.74
2022-08-03T18:10:03.195Z,30.06
2022-08-03T18:12:54.544Z,31.30
2022-08-03T18:16:02.291Z,32.77
2022-08-03T18:19:09.517Z,33.85
2022-08-03T18:22:13.784Z,34.69
2022-08-03T18:25:37.815Z,35.13
2022-08-03T18:28:44.956Z,35.57
2022-08-03T18:32:01.461Z,36.09
2022-08-03T18:35:13.809Z,36.08
2022-08-03T18:38:18.770Z,36.10
2022-08-03T18:48:19.811Z,36.28
2022-08-03T18:51:43.194Z,36.28
2022-08-03T18:55:19.748Z,36.44
2022-08-03T18:58:29.191Z,36.48
2022-08-03T19:02:00.662Z,36.59
2022-08-03T19:05:11.493Z,36.53
2022-08-03T19:08:18.231Z,36.53
2022-08-03T19:12:10.973Z,36.72
2022-08-03T19:15:00.393Z,36.67
2022-08-03T19:18:26.724Z,36.68
2022-08-03T19:21:38.675Z,36.79
2022-08-03T19:24:43.740Z,36.81
2022-08-03T19:27:48.126Z,36.81
2022-08-03T19:30:53.739Z,36.71
2022-08-03T19:33:58.959Z,36.95
2022-08-03T19:37:02.851Z,36.87
2022-08-03T19:40:10.700Z,36.62
2022-08-03T19:43:32.903Z,36.63
2022-08-03T19:46:56.383Z,36.49
2022-08-03T19:50:14.052Z,36.38
2022-08-03T19:53:17.781Z,36.40
2022-08-03T19:56:24.738Z,36.36
2022-08-03T19:59:29.785Z,36.34
2022-08-03T20:02:34.445Z,36.44
2022-08-03T20:05:44.831Z,36.34
2022-08-03T20:08:57.100Z,36.52
2022-08-03T20:12:02.227Z,36.43
2022-08-03T20:15:07.138Z,36.50
2022-08-03T20:18:16.819Z,36.60
2022-08-03T20:21:25.258Z,36.46
2022-08-03T20:24:36.464Z,36.52
2022-08-03T20:28:08.211Z,36.39
2022-08-03T20:31:16.456Z,36.39
2022-08-03T20:34:21.229Z,36.46
2022-08-03T20:37:24.452Z,36.46
2022-08-03T20:40:29.375Z,36.45
2022-08-03T20:43:33.582Z,36.38
2022-08-03T20:46:50.361Z,36.53
2022-08-03T20:50:00.254Z,36.59
2022-08-03T20:53:04.913Z,36.68
2022-08-03T20:56:10.180Z,36.77
2022-08-03T20:59:14.867Z,36.93
2022-08-03T21:02:29.471Z,36.91
2022-08-03T21:05:51.055Z,37.07
2022-08-03T21:09:04.268Z,37.21
2022-08-03T21:12:11.787Z,37.35
2022-08-03T21:12:59.143Z,36.45
2022-08-03T21:13:03.991Z,36.25
2022-08-03T21:16:06.419Z,37.28
2022-08-03T21:18:47.872Z,37.44
2022-08-03T21:21:53.246Z,37.49
2022-08-03T21:24:57.571Z,37.60
2022-08-03T21:28:01.875Z,37.71
2022-08-03T21:31:04.845Z,37.76
2022-08-03T21:34:08.392Z,37.82
2022-08-03T21:37:15.395Z,37.91
2022-08-03T21:40:18.686Z,38.07
2022-08-03T21:43:21.575Z,37.96
2022-08-03T21:46:26.830Z,38.16
2022-08-03T21:50:05.077Z,38.18
2022-08-03T21:52:59.189Z,38.47
2022-08-03T21:56:13.495Z,38.43
2022-08-03T21:59:18.737Z,38.56
2022-08-03T22:02:30.117Z,38.67
2022-08-03T22:05:43.669Z,38.71
2022-08-03T22:08:48.999Z,38.69
2022-08-03T22:11:55.300Z,38.79
2022-08-03T22:15:02.082Z,38.85
2022-08-03T22:18:05.902Z,38.78
2022-08-03T22:21:11.889Z,38.91
2022-08-03T22:24:18.904Z,38.94
2022-08-03T22:27:31.610Z,39.05
2022-08-03T22:30:35.185Z,39.02
2022-08-03T22:33:38.776Z,39.25
2022-08-03T22:36:42.620Z,39.33
2022-08-03T22:39:46.154Z,39.30
2022-08-03T22:42:50.512Z,39.59
2022-08-03T22:46:09.554Z,39.42
2022-08-03T22:49:16.644Z,39.54
2022-08-03T22:52:20.353Z,39.60
2022-08-03T22:55:25.259Z,39.57
2022-08-03T22:58:28.349Z,39.71
2022-08-03T23:01:37.546Z,39.82
2022-08-03T23:04:42.403Z,39.89
2022-08-03T23:07:45.894Z,39.83
2022-08-03T23:10:50.818Z,39.98
2022-08-03T23:13:56.839Z,40.15
2022-08-03T23:17:03.979Z,40.17
2022-08-03T23:20:11.363Z,40.26
2022-08-03T23:23:15.449Z,40.41
2022-08-03T23:26:23.129Z,40.38
2022-08-03T23:29:38.865Z,40.38
2022-08-03T23:32:43.707Z,40.37
2022-08-03T23:36:20.176Z,40.54
2022-08-03T23:39:23.171Z,40.41
2022-08-03T23:42:27.629Z,40.55
2022-08-03T23:45:35.229Z,40.61
2022-08-03T23:48:40.152Z,40.73
2022-08-03T23:52:00.895Z,40.74
2022-08-03T23:55:22.357Z,40.82
2022-08-03T23:59:03.637Z,40.78
